Tiempo atmosférico en la estación meteorológica de Abia De Obispalia, Cuenca (1020 m.)



Fecha
DESCASC
Temp. máxima en grados centígrados (hora)
DESCASC
Temp. mínima en grados centígrados (hora)
DESCASC
Temp. media en grados centígrados
DESCASC
Racha de viento máxima en m/sg (hora)
DESCASC
Velocidad máxima media en intervalos de 10 minutos(hora)
DESCASC
Precipitaciones diarias en mm
DESCASC
Precipitaciones de 00:00 a 06:00 en mm
DESCASC
Precipitaciones de 06:00 a 12:00 en mm
DESCASC
Precipitaciones de 12:00 a 18:00 en mm
DESCASC
Precipitaciones de 18:00 a 24:00 en mm
DESCASC
31-05-2020 29.1 (17:40) 13.8 (07:30) 21.5 12.78 (18:30) 6.67 (18:30) 0 0 0 0 0
30-05-2020 28.2 (18:00) 13 (06:00) 20.6 9.17 (02:20) 6.67 (23:20) 0 0 0 0 0
29-05-2020 29.6 (18:10) 8.7 (06:20) 19.2 7.22 (22:00) 5 (22:00) 0 0 0 0 0
28-05-2020 25 (15:10) 11.3 (00:00) 18.2 11.39 (03:50) 6.94 (03:40) 0 0 0 0 0
27-05-2020 26.6 (16:40) 12.7 (00:00) 19.7 12.78 (11:10) 8.33 (10:30) 0 0 0 0 0
26-05-2020 26.8 (18:10) 13.6 (00:00) 20.2 8.89 (15:20) 5.28 (10:40) 2 2 0 0 0
25-05-2020 20.6 (17:10) 13.3 (00:00) 17 10 (12:30) 6.94 (12:40) 4.6 0 0.8 3.6 0.2
24-05-2020 26.9 (18:00) 14.6 (00:00) 20.8 12.78 (10:50) 8.89 (10:50) 0 0 0 0 0
23-05-2020 31 (17:20) 13.8 (00:00) 22.4 8.06 (23:50) 5.56 (23:59) 0 0 0 0 0
22-05-2020 31 (18:10) 12 (00:00) 21.5 8.89 (23:40) 5.28 (23:59) 0 0 0 0 0
21-05-2020 29 (17:50) 11.1 (00:00) 20.1 7.5 (03:40) 3.89 (03:50) 0 0 0 0 0
20-05-2020 28.5 (17:10) 9.8 (00:00) 19.2 7.22 (16:50) 3.89 (16:00) 0 0 0 0 0
19-05-2020 27.1 (17:20) 7.8 (00:00) 17.5 6.94 (16:20) 3.61 (18:50) 0 0 0 0 0
18-05-2020 25.5 (17:40) 6.2 (00:00) 15.8 9.17 (16:30) 4.72 (18:50) 0 0 0 0 0
17-05-2020 20.8 (17:30) 5.6 (00:00) 13.2 6.67 (15:30) 3.33 (15:40) 0.2 0 0.2 0 0
16-05-2020 17.1 (15:30) 7.6 (00:00) 12.4 7.22 (15:40) 3.89 (17:40) 0.8 0 0 0.8 0
15-05-2020 15.2 (12:40) 6.3 (00:00) 10.8 10 (17:00) 5.56 (14:50) 17.6 0 0 10.6 7
14-05-2020 11.6 (18:10) 7 (00:00) 9.3 8.33 (08:20) 3.61 (08:50) 13.8 0.2 13.6 0 0
13-05-2020 14.9 (17:00) 7.2 (00:00) 11 6.11 (02:10) 3.61 (02:10) 3 2.8 0.2 0 0
12-05-2020 11.8 (11:00) 6.9 (00:00) 9.4 6.94 (18:40) 3.33 (06:10) 16.6 0 0 8.8 7.8
11-05-2020 17.4 (17:20) 8.2 (00:00) 12.8 10 (18:30) 5 (18:30) 0.6 0 0.4 0 0.2
10-05-2020 16.5 (15:40) 8.9 (00:00) 12.7 11.67 (17:00) 6.67 (17:10) 2.4 0.4 0.8 1.2 0
09-05-2020 23.2 (17:10) 11 (00:00) 17.1 8.89 (18:10) 5 (05:40) 0 0 0 0 0
08-05-2020 26 (16:20) 12.1 (00:00) 19.1 10.28 (06:40) 6.39 (21:40) 0 0 0 0 0
07-05-2020 23.6 (14:50) 13.2 (00:00) 18.4 14.44 (15:30) 9.44 (13:20) 0 0 0 0 0
06-05-2020 26.7 (18:00) 7.2 (00:00) 17 6.67 (13:50) 3.06 (13:50) 0 0 0 0 0
05-05-2020 23.6 (18:50) 8.9 (00:00) 16.3 7.22 (12:30) 2.78 (12:30) 0 0 0 0 0
04-05-2020 28.2 (15:40) 14 (00:00) 21.1 14.17 (16:10) 10 (16:50) 0 0 0 0 0
03-05-2020 28.3 (17:20) 8.9 (00:00) 18.6 8.61 (15:50) 5.56 (23:59) 0 0 0 0 0

Gráficas

Temp. máximas Temp. mínimas Temp. medias Precipitaciones Rachas de viento máximas Velocidades máximas media en intervalos de 10 minutos

Datos horarios

Fecha y hora oficial Temperatura (ºC) Velocidad del viento (km/h) Dirección del viento Racha (km/h) Dirección de racha Precipitación (mm) Presión (hPa) Tendencia (hPa) Humedad (%)
2020-06-01 23:00:00 16.8 0 Calma 3 Sudoeste 0 -- -- 60
2020-06-01 22:00:00 19.4 0 Calma 6 Sudoeste 0 -- -- 53
2020-06-01 21:00:00 23.4 2 Sudoeste 16 Oeste 0 -- -- 43
2020-06-01 20:00:00 25.8 6 Oeste 15 Oeste 0 -- -- 34
2020-06-01 19:00:00 26.4 5 Noroeste 12 Oeste 0 -- -- 33
2020-06-01 18:00:00 27.1 5 Noroeste 13 Oeste 0 -- -- 32
2020-06-01 17:00:00 28.3 5 Oeste 18 Sudeste 0 -- -- 32
2020-06-01 16:00:00 26.5 5 Sur 16 Noroeste 0 -- -- 32
2020-06-01 15:00:00 26.7 5 Noroeste 19 Norte 0 -- -- 35
2020-06-01 14:00:00 26.4 5 Nordeste 17 Noroeste 0 -- -- 36
2020-06-01 13:00:00 24.7 6 Noroeste 17 Noroeste 0 -- -- 38
2020-06-01 12:00:00 23.2 7 Noroeste 16 Noroeste 0 -- -- 41
2020-06-01 11:00:00 22 5 Sudoeste 14 Sur 0 -- -- 50
2020-06-01 10:00:00 19 5 Sur 11 Sudeste 0 -- -- 59
2020-06-01 09:00:00 15.3 2 Sur 7 Sudeste 0 -- -- 67
2020-06-01 08:00:00 14.5 4 Sur 9 Sur 0 -- -- 70
2020-06-01 07:00:00 14.3 2 Este 21 Sudeste 0 -- -- 76
2020-06-01 06:00:00 14.8 17 Sur 23 Sudeste 0 -- -- 75
2020-06-01 05:00:00 15.2 9 Sur 14 Sur 0 -- -- 74
2020-06-01 04:00:00 15.1 3 Sudeste 13 Noroeste 0 -- -- 74
2020-06-01 03:00:00 15.8 10 Noroeste 30 Noroeste 0 -- -- 71
2020-06-01 02:00:00 16.7 13 Noroeste 21 Noroeste 0 -- -- 67
2020-06-01 01:00:00 17.9 7 Oeste 24 Sudoeste 0 -- -- 62
2020-06-01 00:00:00 19.8 15 Sur 29 Sudoeste 0 -- -- 39
2020-05-31 23:00:00 20.1 21 Sur 31 Sudeste 0 -- -- 43
2020-05-31 22:00:00 20.9 21 Sur 33 Sur 0 -- -- 37
2020-05-31 21:00:00 22.3 15 Sur 28 Sur 0 -- -- 34
2020-05-31 20:00:00 24.3 21 Sur 35 Sudeste 0 -- -- 30
2020-05-31 19:00:00 26.5 19 Sur 46 Sudeste 0 -- -- 27
2020-05-31 18:00:00 28.4 13 Sudoeste 28 Sudoeste 0 -- -- 24
2020-05-31 17:00:00 28.6 8 Sudoeste 24 Sur 0 -- -- 25
2020-05-31 16:00:00 28.2 14 Sur 30 Sudeste 0 -- -- 26
2020-05-31 15:00:00 27.5 8 Sudoeste 28 Sur 0 -- -- 27
2020-05-31 14:00:00 26.3 15 Sur 25 Sur 0 -- -- 30
2020-05-31 13:00:00 25.1 10 Sur 21 Sur 0 -- -- 31
2020-05-31 12:00:00 23.7 11 Sur 20 Sur 0 -- -- 34
2020-05-31 11:00:00 22 13 Sudeste 23 Sur 0 -- -- 40
2020-05-31 10:00:00 19.6 11 Sudeste 26 Sudeste 0 -- -- 44
2020-05-31 09:00:00 17.2 11 Sudeste 23 Sudeste 0 -- -- 49
2020-05-31 08:00:00 14.7 12 Sudeste 23 Sudeste 0 -- -- 56
2020-05-31 07:00:00 14 14 Sudeste 23 Sudeste 0 -- -- 59
2020-05-31 06:00:00 14.3 13 Sudeste 23 Sudeste 0 -- -- 61
2020-05-31 05:00:00 14.4 8 Sudeste 20 Sudeste 0 -- -- 64
2020-05-31 04:00:00 14.6 7 Sudeste 22 Sudeste 0 -- -- 67
2020-05-31 03:00:00 15.2 10 Sudeste 23 Sudeste 0 -- -- 66
2020-05-31 02:00:00 16 12 Sudeste 22 Sudeste 0 -- -- 63
2020-05-31 01:00:00 16.7 14 Sudeste 25 Sudeste 0 -- -- 58
2020-05-31 00:00:00 18 21 Sudeste 33 Sur 0 -- -- 52
2020-05-30 23:00:00 19.2 21 Sur 30 Sur 0 -- -- 43
2020-05-30 22:00:00 20.9 17 Sur 24 Sur 0 -- -- 36
2020-05-30 21:00:00 23.1 11 Sur 19 Sur 0 -- -- 33
2020-05-30 20:00:00 26.2 15 Sur 24 Sur 0 -- -- 27
2020-05-30 19:00:00 26.2 11 Sur 20 Sur 0 -- -- 28
2020-05-30 18:00:00 28.2 6 Sudoeste 30 Sur 0 -- -- 24
2020-05-30 17:00:00 26.6 8 Sur 22 Sur 0 -- -- 28
2020-05-30 16:00:00 27.6 18 Sur 28 Sudeste 0 -- -- 27
2020-05-30 15:00:00 26.6 12 Sur 24 Sudeste 0 -- -- 28
2020-05-30 14:00:00 25 13 Sur 26 Sur 0 -- -- 32
2020-05-30 13:00:00 23.7 13 Sur 25 Sur 0 -- -- 36
2020-05-30 12:00:00 22.6 15 Sur 25 Sudeste 0 -- -- 41
2020-05-30 11:00:00 20.7 15 Sudeste 26 Sudeste 0 -- -- 45
2020-05-30 10:00:00 18.6 14 Sudeste 28 Sudeste 0 -- -- 53
2020-05-30 09:00:00 16.1 15 Sudeste 25 Sudeste 0 -- -- 55
2020-05-30 08:00:00 13.6 9 Sudeste 24 Sudeste 0 -- -- 59
2020-05-30 07:00:00 13 17 Sudeste 28 Sudeste 0 -- -- 60
2020-05-30 06:00:00 13 12 Sudeste 29 Sudeste 0 -- -- 62
2020-05-30 05:00:00 13.4 16 Sudeste 25 Sudeste 0 -- -- 62
2020-05-30 04:00:00 14.1 17 Sudeste 28 Sudeste 0 -- -- 60
2020-05-30 03:00:00 14.9 16 Sudeste 33 Sudeste 0 -- -- 58
2020-05-30 02:00:00 15.8 17 Sudeste 30 Sudeste 0 -- -- 57
2020-05-30 01:00:00 16.7 16 Sudeste 24 Sudeste 0 -- -- 57
2020-05-30 00:00:00 18.2 12 Sudeste 17 Sudeste 0 -- -- 45
2020-05-29 23:00:00 20.2 12 Sur 21 Sur 0 -- -- 39
2020-05-29 22:00:00 22.4 18 Sur 26 Sudeste 0 -- -- 33
2020-05-29 21:00:00 24.4 4 Sudeste 9 Noroeste 0 -- -- 38
2020-05-29 20:00:00 28 6 Norte 16 Noroeste 0 -- -- 28
2020-05-29 19:00:00 29.6 5 Norte 19 Noroeste 0 -- -- 25
2020-05-29 18:00:00 29.3 6 Norte 14 Oeste 0 -- -- 26
2020-05-29 17:00:00 28.2 8 Sur 18 Noroeste 0 -- -- 25
2020-05-29 16:00:00 27.6 9 Noroeste 22 Norte 0 -- -- 27
2020-05-29 15:00:00 27.1 6 Nordeste 16 Noroeste 0 -- -- 30
2020-05-29 14:00:00 26.4 8 Nordeste 15 Noroeste 0 -- -- 30
2020-05-29 13:00:00 25.4 7 Norte 19 Sudoeste 0 -- -- 33
2020-05-29 12:00:00 24.3 4 Este 13 Este 0 -- -- 33
2020-05-29 11:00:00 22.6 5 Sudeste 11 Sudeste 0 -- -- 39
2020-05-29 10:00:00 20.1 5 Este 13 Sudeste 0 -- -- 47
2020-05-29 09:00:00 16.3 4 Sudeste 7 Sur 0 -- -- 53
2020-05-29 08:00:00 11.9 3 Sudeste 10 Este 0 -- -- 69
2020-05-29 07:00:00 9.4 4 Sur 6 Sudeste 0 -- -- 77
2020-05-29 06:00:00 9 0 Calma 6 Este 0 -- -- 79
2020-05-29 05:00:00 10.5 0 Calma 14 Sudeste 0 -- -- 72
2020-05-29 04:00:00 11.4 6 Sudeste 10 Sudeste 0 -- -- 66
2020-05-29 03:00:00 11.8 3 Sur 8 Sudeste 0 -- -- 68
2020-05-29 02:00:00 13.5 6 Sudeste 14 Sudeste 0 -- -- 61
2020-05-29 01:00:00 14.4 7 Sudeste 15 Sudeste 0 -- -- 63
2020-05-29 00:00:00 15.3 12 Sudeste 19 Sudeste 0 -- -- 61
2020-05-28 23:00:00 16.3 11 Sudeste 18 Sudeste 0 -- -- 58
2020-05-28 22:00:00 17.6 11 Sudeste 18 Sudeste 0 -- -- 51
2020-05-28 21:00:00 20.1 11 Sudeste 23 Sudeste 0 -- -- 42
2020-05-28 20:00:00 22.7 14 Sudeste 26 Sudeste 0 -- -- 38
2020-05-28 19:00:00 23.7 17 Sur 31 Sudeste 0 -- -- 36
2020-05-28 18:00:00 24.4 19 Sudeste 38 Sudeste 0 -- -- 36
2020-05-28 17:00:00 25 14 Sudeste 30 Sudeste 0 -- -- 36
2020-05-28 16:00:00 24.5 18 Sur 30 Sur 0 -- -- 34
2020-05-28 15:00:00 24.9 13 Sudeste 27 Sudeste 0 -- -- 34
2020-05-28 14:00:00 24.1 10 Sudeste 27 Sudeste 0 -- -- 33
2020-05-28 13:00:00 22.6 13 Sur 29 Sudeste 0 -- -- 38
2020-05-28 12:00:00 21 18 Sur 28 Sudeste 0 -- -- 40
2020-05-28 11:00:00 19.9 13 Sudeste 28 Sudeste 0 -- -- 48
2020-05-28 10:00:00 17.9 16 Sudeste 32 Sudeste 0 -- -- 57
2020-05-28 09:00:00 15.2 12 Sudeste 30 Este 0 -- -- 65
2020-05-28 08:00:00 12.6 12 Sudeste 27 Sudeste 0 -- -- 72
2020-05-28 07:00:00 11.5 15 Sudeste 27 Sudeste 0 -- -- 71
2020-05-28 06:00:00 11.4 12 Sudeste 22 Sudeste 0 -- -- 71
2020-05-28 05:00:00 12.3 13 Sudeste 39 Sudeste 0 -- -- 67
2020-05-28 04:00:00 12.7 25 Sudeste 41 Sudeste 0 -- -- 67
2020-05-28 03:00:00 13 24 Sudeste 34 Sudeste 0 -- -- 64
2020-05-28 02:00:00 13.4 18 Sudeste 28 Sudeste 0 -- -- 68
2020-05-28 01:00:00 14.2 15 Sudeste 23 Sudeste 0 -- -- 67
2020-05-28 00:00:00 15.2 13 Sudeste 21 Sudeste 0 -- -- 65
2020-05-27 23:00:00 16.6 14 Sudeste 23 Sudeste 0 -- -- 60
2020-05-27 22:00:00 17.9 14 Sudeste 24 Sudeste 0 -- -- 58
2020-05-27 21:00:00 20 20 Sudeste 32 Sudeste 0 -- -- 51
2020-05-27 20:00:00 22.6 18 Sudeste 35 Sur 0 -- -- 44
2020-05-27 19:00:00 24.3 21 Sur 34 Sur 0 -- -- 39
2020-05-27 18:00:00 25.9 17 Sudeste 30 Sudeste 0 -- -- 35
2020-05-27 17:00:00 25.9 15 Sudeste 36 Sudeste 0 -- -- 35
2020-05-27 16:00:00 26.2 14 Sudeste 39 Este 0 -- -- 35
2020-05-27 15:00:00 25.4 16 Sudeste 37 Sudeste 0 -- -- 36
2020-05-27 14:00:00 24.6 18 Sudeste 36 Sudeste 0 -- -- 39
2020-05-27 13:00:00 23.6 19 Sudeste 39 Sudeste 0 -- -- 40
2020-05-27 12:00:00 22.1 22 Sudeste 46 Sudeste 0 -- -- 39
2020-05-27 11:00:00 20.3 29 Sudeste 45 Sudeste 0 -- -- 46
2020-05-27 10:00:00 18.6 24 Sudeste 42 Sudeste 0 -- -- 52
2020-05-27 09:00:00 16.5 19 Sudeste 32 Sudeste 0 -- -- 59
2020-05-27 08:00:00 14 15 Sudeste 26 Sudeste 0 -- -- 61
2020-05-27 07:00:00 12.9 16 Sudeste 26 Sudeste 0 -- -- 61
2020-05-27 06:00:00 12.9 15 Sudeste 24 Sudeste 0 -- -- 64
2020-05-27 05:00:00 13 11 Sudeste 16 Sudeste 0 -- -- 66
2020-05-27 04:00:00 13.3 8 Sudeste 20 Este 0 -- -- 72
2020-05-27 03:00:00 14.2 8 Sudeste 20 Este 0 -- -- 67
2020-05-27 02:00:00 14.6 10 Sudeste 21 Este 0 -- -- 66
2020-05-27 01:00:00 14.7 6 Sudeste 15 Sudeste 0 -- -- 70
2020-05-27 00:00:00 16 10 Sudeste 26 Sudeste 0 -- -- 64
2020-05-26 23:00:00 16.9 17 Sudeste 25 Sudeste 0 -- -- 63
2020-05-26 22:00:00 18.2 15 Sudeste 21 Sudeste 0 -- -- 59
2020-05-26 21:00:00 20.5 16 Sudeste 24 Sur 0 -- -- 56
2020-05-26 20:00:00 23.5 15 Sur 24 Sudeste 0 -- -- 47
2020-05-26 19:00:00 25.9 8 Sudeste 14 Sudeste 0 -- -- 37
2020-05-26 18:00:00 26.6 4 Noroeste 17 Noroeste 0 -- -- 41
2020-05-26 17:00:00 24.2 5 Oeste 26 Sudoeste 0 -- -- 46
2020-05-26 16:00:00 25.5 6 Sur 32 Sudoeste 0 -- -- 41
2020-05-26 15:00:00 23.9 13 Sudeste 25 Sudeste 0 -- -- 47
2020-05-26 14:00:00 23.3 10 Sur 27 Sur 0 -- -- 50
2020-05-26 13:00:00 21.5 14 Sur 23 Sur 0 -- -- 54
2020-05-26 12:00:00 20.6 14 Sudeste 25 Este 0 -- -- 52
2020-05-26 11:00:00 19.6 14 Sudeste 29 Sudeste 0 -- -- 61
2020-05-26 10:00:00 18.5 14 Sudeste 28 Sudeste 0 -- -- 73
2020-05-26 09:00:00 16.4 12 Sudeste 22 Sudeste 0 -- -- 82
2020-05-26 08:00:00 14.2 14 Sur 19 Sur 0 -- -- 89
2020-05-26 07:00:00 13.9 7 Sudeste 11 Sudeste 0 -- -- 90
2020-05-26 06:00:00 13.8 0 Calma 9 Nordeste 0 -- -- 91
2020-05-26 05:00:00 13.9 5 Este 17 Sudeste 0 -- -- 90
2020-05-26 04:00:00 14 7 Sudeste 17 Sudeste 0 -- -- 90
2020-05-26 03:00:00 14 9 Sudeste 26 Sudeste 0 -- -- 90
2020-05-26 02:00:00 14.3 11 Sudeste 21 Sudeste 0 -- -- 90
2020-05-26 01:00:00 14.6 2 Sudeste 6 Norte 2 -- -- 90
2020-05-26 00:00:00 16 3 Este 18 Sur 0.2 -- -- 79
2020-05-25 23:00:00 16 13 Sur 20 Sur 0 -- -- 76
2020-05-25 22:00:00 16.5 10 Sur 18 Sur 0 -- -- 83
2020-05-25 21:00:00 17.7 10 Sudeste 17 Sur 0 -- -- 80
2020-05-25 20:00:00 19.1 5 Sudeste 14 Sudeste 0 -- -- 70
2020-05-25 19:00:00 19.8 12 Sur 23 Sur 0 -- -- 66
2020-05-25 18:00:00 19.9 10 Sudeste 32 Sudeste 0 -- -- 64
2020-05-25 17:00:00 20.1 19 Sudeste 32 Sudeste 0 -- -- 65
2020-05-25 16:00:00 19.8 18 Sudeste 32 Sudeste 0 -- -- 71
2020-05-25 15:00:00 17.4 15 Sudeste 27 Sudeste 0.6 -- -- 82
2020-05-25 14:00:00 15.6 12 Sudeste 28 Sudeste 1.8 -- -- 84
2020-05-25 13:00:00 16.8 23 Sudeste 36 Sudeste 1.2 -- -- 82
2020-05-25 12:00:00 18.4 10 Sudeste 25 Sudeste 0 -- -- 63
2020-05-25 11:00:00 18.9 12 Sudeste 23 Sudeste 0 -- -- 64
2020-05-25 10:00:00 15.8 5 Sudoeste 17 Sudeste 0 -- -- 79
2020-05-25 09:00:00 13.8 11 Sudeste 29 Sudeste 0.8 -- -- 87
2020-05-25 08:00:00 14.4 5 Este 19 Este 0 -- -- 80
2020-05-25 07:00:00 13.5 4 Este 21 Sudeste 0 -- -- 83
2020-05-25 06:00:00 13.5 9 Sudeste 20 Sudeste 0 -- -- 89
2020-05-25 05:00:00 14 10 Sudeste 27 Sudeste 0 -- -- 90
2020-05-25 04:00:00 14.2 10 Sudeste 21 Sudeste 0 -- -- 89
2020-05-25 03:00:00 14.9 15 Sudeste 26 Sudeste 0 -- -- 89
2020-05-25 02:00:00 15.9 7 Este 21 Sudeste 0 -- -- 86
2020-05-25 01:00:00 16.8 14 Sudeste 30 Sudeste 0 -- -- 82
2020-05-25 00:00:00 17.7 21 Sudeste 32 Sudeste 0 -- -- 77
2020-05-24 23:00:00 18.9 19 Sudeste 26 Sudeste 0 -- -- 70
2020-05-24 22:00:00 20.5 16 Sur 25 Sudeste 0 -- -- 63
2020-05-24 21:00:00 22.2 17 Sur 24 Sur 0 -- -- 56
2020-05-24 20:00:00 24.4 15 Sur 23 Sur 0 -- -- 48
2020-05-24 19:00:00 26 14 Sur 21 Sudeste 0 -- -- 44
2020-05-24 18:00:00 26.9 13 Sur 23 Sur 0 -- -- 38
2020-05-24 17:00:00 26.7 14 Sur 26 Sudeste 0 -- -- 38
2020-05-24 16:00:00 26 14 Sur 32 Sudeste 0 -- -- 43
2020-05-24 15:00:00 24.8 17 Sur 30 Sudeste 0 -- -- 43
2020-05-24 14:00:00 23.8 21 Sur 35 Sudeste 0 -- -- 45
2020-05-24 13:00:00 23.2 20 Sudeste 33 Sur 0 -- -- 45
2020-05-24 12:00:00 22.1 23 Sudeste 40 Sudeste 0 -- -- 45
2020-05-24 11:00:00 20 30 Sudeste 46 Sudeste 0 -- -- 50
2020-05-24 10:00:00 18.8 24 Sudeste 40 Sudeste 0 -- -- 52
2020-05-24 09:00:00 16.7 24 Sudeste 38 Sudeste 0 -- -- 60
2020-05-24 08:00:00 15 20 Sudeste 32 Sudeste 0 -- -- 62
2020-05-24 07:00:00 14.7 15 Sudeste 28 Sudeste 0 -- -- 57
2020-05-24 06:00:00 15.5 15 Sudeste 31 Sudeste 0 -- -- 53
2020-05-24 05:00:00 16.4 21 Sudeste 34 Sudeste 0 -- -- 49
2020-05-24 04:00:00 16.5 17 Sudeste 26 Sudeste 0 -- -- 54
2020-05-24 03:00:00 17 14 Sudeste 24 Sudeste 0 -- -- 58
2020-05-24 02:00:00 17.1 11 Sudeste 21 Sudeste 0 -- -- 62
2020-05-24 01:00:00 18.7 14 Sudeste 25 Sudeste 0 -- -- 60
2020-05-24 00:00:00 19.7 20 Sudeste 29 Sudeste 0 -- -- 60
2020-05-23 23:00:00 18.6 0 Calma 4 Sudeste 0 -- -- 58
2020-05-23 22:00:00 20.2 0 Calma 9 Oeste 0 -- -- 56
2020-05-23 21:00:00 24 5 Sudoeste 9 Sudoeste 0 -- -- 41
2020-05-23 20:00:00 28.8 4 Sudoeste 16 Oeste 0 -- -- 31
2020-05-23 19:00:00 30 8 Oeste 21 Noroeste 0 -- -- 29
2020-05-23 18:00:00 30.6 9 Oeste 22 Oeste 0 -- -- 29
2020-05-23 17:00:00 30.5 7 Oeste 23 Oeste 0 -- -- 29
2020-05-23 16:00:00 30.4 6 Noroeste 21 Oeste 0 -- -- 30
2020-05-23 15:00:00 29.3 10 Oeste 23 Oeste 0 -- -- 32
2020-05-23 14:00:00 28.7 8 Noroeste 17 Oeste 0 -- -- 36
2020-05-23 13:00:00 28.5 4 Noroeste 11 Sur 0 -- -- 39
2020-05-23 12:00:00 27 3 Sudeste 6 Sudeste 0 -- -- 45
2020-05-23 11:00:00 23.8 4 Noroeste 10 Noroeste 0 -- -- 48
2020-05-23 10:00:00 21.7 2 Este 12 Sudeste 0 -- -- 55
2020-05-23 09:00:00 19.5 6 Sudeste 14 Sudeste 0 -- -- 58
2020-05-23 08:00:00 15.4 2 Norte 10 Noroeste 0 -- -- 76
2020-05-23 07:00:00 14.4 3 Norte 8 Noroeste 0 -- -- 76
2020-05-23 06:00:00 14 2 Este 6 Sudeste 0 -- -- 78
2020-05-23 05:00:00 14.8 0 Calma 4 Oeste 0 -- -- 75
2020-05-23 04:00:00 16.9 0 Calma 17 Sudeste 0 -- -- 67
2020-05-23 03:00:00 17.6 10 Sudeste 19 Sudeste 0 -- -- 64
2020-05-23 02:00:00 18.8 13 Sudeste 24 Sudeste 0 -- -- 60
2020-05-23 01:00:00 19.4 14 Sudeste 25 Sudeste 0 -- -- 61
2020-05-23 00:00:00 20.5 19 Sudeste 32 Sur 0 -- -- 55
2020-05-22 23:00:00 19.4 7 Sur 10 Sur 0 -- -- 49
2020-05-22 22:00:00 19.7 4 Sudoeste 5 Sudoeste 0 -- -- 55
2020-05-22 21:00:00 24.2 3 Sudoeste 10 Oeste 0 -- -- 46
2020-05-22 20:00:00 29.3 4 Oeste 17 Oeste 0 -- -- 31
2020-05-22 19:00:00 30 7 Noroeste 15 Sur 0 -- -- 30
2020-05-22 18:00:00 30.3 2 Norte 20 Sur 0 -- -- 32
2020-05-22 17:00:00 30.4 6 Norte 16 Oeste 0 -- -- 29
2020-05-22 16:00:00 29.8 7 Oeste 16 Noroeste 0 -- -- 30
2020-05-22 15:00:00 29.3 7 Noroeste 26 Noroeste 0 -- -- 27
2020-05-22 14:00:00 28.8 9 Noroeste 20 Oeste 0 -- -- 31
2020-05-22 13:00:00 28.2 6 Oeste 18 Noroeste 0 -- -- 34
2020-05-22 12:00:00 27.7 5 Sudoeste 15 Sudoeste 0 -- -- 33
2020-05-22 11:00:00 26.9 4 Noroeste 12 Noroeste 0 -- -- 38
2020-05-22 10:00:00 25 2 Nordeste 6 Nordeste 0 -- -- 43
2020-05-22 09:00:00 19.2 0 Calma 2 Noroeste 0 -- -- 63
2020-05-22 08:00:00 14.1 0 Calma 6 Noroeste 0 -- -- 70
2020-05-22 07:00:00 12 0 Calma 2 Sudoeste 0 -- -- 79
2020-05-22 06:00:00 12.3 0 Calma 8 Sudeste 0 -- -- 76
2020-05-22 05:00:00 13.1 6 Sudeste 9 Sudeste 0 -- -- 69
2020-05-22 04:00:00 13 5 Sudeste 17 Sudoeste 0 -- -- 66
2020-05-22 03:00:00 13.2 2 Sur 10 Noroeste 0 -- -- 59
2020-05-22 02:00:00 13.6 0 Calma 2 Sudoeste 0 -- -- 62
2020-05-22 01:00:00 14.7 0 Calma 3 Sudoeste 0 -- -- 58
2020-05-22 00:00:00 15.2 3 Sur 4 Sur 0 -- -- 59
2020-05-21 23:00:00 16.4 2 Sur 4 Sur 0 -- -- 56
2020-05-21 22:00:00 18.2 0 Calma 3 Oeste 0 -- -- 53
2020-05-21 21:00:00 21.4 2 Oeste 11 Oeste 0 -- -- 45
2020-05-21 20:00:00 27.6 7 Oeste 18 Oeste 0 -- -- 27
2020-05-21 19:00:00 28.5 8 Oeste 18 Oeste 0 -- -- 26
2020-05-21 18:00:00 28.8 5 Sudoeste 22 Noroeste 0 -- -- 24
2020-05-21 17:00:00 28.6 9 Oeste 23 Oeste 0 -- -- 26
2020-05-21 16:00:00 28.6 8 Oeste 24 Noroeste 0 -- -- 28
2020-05-21 15:00:00 27.8 10 Noroeste 23 Noroeste 0 -- -- 28
2020-05-21 14:00:00 27 11 Oeste 23 Oeste 0 -- -- 28
2020-05-21 13:00:00 25.8 8 Sudoeste 22 Sur 0 -- -- 34
2020-05-21 12:00:00 24.2 11 Sur 18 Sur 0 -- -- 41
2020-05-21 11:00:00 22.7 11 Sur 17 Sur 0 -- -- 44
2020-05-21 10:00:00 21.9 7 Sudeste 16 Sur 0 -- -- 51
2020-05-21 09:00:00 17.3 2 Noroeste 8 Norte 0 -- -- 64
2020-05-21 08:00:00 13.5 3 Noroeste 6 Este 0 -- -- 67
2020-05-21 07:00:00 12.9 0 Calma 9 Sudeste 0 -- -- 68
2020-05-21 06:00:00 11.1 3 Este 7 Este 0 -- -- 74
2020-05-21 05:00:00 11.3 0 Calma 6 Sudeste 0 -- -- 65
2020-05-21 04:00:00 14.9 5 Este 27 Sudoeste 0 -- -- 51
2020-05-21 03:00:00 12.6 3 Sur 12 Oeste 0 -- -- 60
2020-05-21 02:00:00 13.2 3 Sudeste 7 Sudeste 0 -- -- 56
2020-05-21 01:00:00 13.5 3 Sur 6 Norte 0 -- -- 56
2020-05-21 00:00:00 14.2 0 Calma 4 Sudoeste 0 -- -- 57
2020-05-20 23:00:00 15.1 0 Calma 4 Sudeste 0 -- -- 55
2020-05-20 22:00:00 16.9 0 Calma 5 Noroeste 0 -- -- 52
2020-05-20 21:00:00 21.9 4 Noroeste 18 Noroeste 0 -- -- 35
2020-05-20 20:00:00 26.9 10 Noroeste 21 Noroeste 0 -- -- 23
2020-05-20 19:00:00 27.8 14 Noroeste 23 Noroeste 0 -- -- 22
2020-05-20 18:00:00 28.2 10 Noroeste 25 Norte 0 -- -- 24
2020-05-20 17:00:00 28.2 10 Noroeste 26 Noroeste 0 -- -- 23
2020-05-20 16:00:00 27.6 14 Noroeste 26 Noroeste 0 -- -- 22
2020-05-20 15:00:00 27 12 Oeste 24 Oeste 0 -- -- 27
2020-05-20 14:00:00 26.2 11 Oeste 23 Oeste 0 -- -- 29
2020-05-20 13:00:00 25.5 8 Oeste 21 Oeste 0 -- -- 36
2020-05-20 12:00:00 24.7 8 Oeste 13 Oeste 0 -- -- 35
2020-05-20 11:00:00 23.5 5 Noroeste 12 Noroeste 0 -- -- 37
2020-05-20 10:00:00 21.8 3 Norte 6 Norte 0 -- -- 46
2020-05-20 09:00:00 17.8 0 Calma 2 Sudeste 0 -- -- 61
2020-05-20 08:00:00 11.6 2 Sudeste 4 Noroeste 0 -- -- 81
2020-05-20 07:00:00 9.9 0 Calma 2 Sudoeste 0 -- -- 82
2020-05-20 06:00:00 9.8 2 Sur 4 Sur 0 -- -- 81
2020-05-20 05:00:00 10.3 0 Calma 3 Sudeste 0 -- -- 80
2020-05-20 04:00:00 10.6 2 Sur 4 Sur 0 -- -- 78
2020-05-20 03:00:00 11.2 0 Calma 3 Sudoeste 0 -- -- 76
2020-05-20 02:00:00 11.8 0 Calma 3 Sur 0 -- -- 72
2020-05-20 01:00:00 13 0 Calma 4 Sur 0 -- -- 69
2020-05-20 00:00:00 14.1 3 Sudeste 4 Sur 0 -- -- 66
2020-05-19 23:00:00 15.3 0 Calma 5 Noroeste 0 -- -- 63
2020-05-19 22:00:00 17.6 0 Calma 12 Oeste 0 -- -- 55
2020-05-19 21:00:00 21.7 7 Oeste 18 Noroeste 0 -- -- 42
2020-05-19 20:00:00 25.8 7 Noroeste 22 Noroeste 0 -- -- 33
2020-05-19 19:00:00 26.5 12 Noroeste 24 Norte 0 -- -- 30
2020-05-19 18:00:00 26.8 12 Noroeste 25 Noroeste 0 -- -- 26
2020-05-19 17:00:00 26.9 8 Noroeste 25 Noroeste 0 -- -- 31
2020-05-19 16:00:00 26.1 10 Noroeste 24 Norte 0 -- -- 32
2020-05-19 15:00:00 25.2 10 Norte 21 Norte 0 -- -- 35
2020-05-19 14:00:00 23.7 8 Noroeste 19 Noroeste 0 -- -- 38
2020-05-19 13:00:00 22.7 6 Noroeste 15 Noroeste 0 -- -- 38
2020-05-19 12:00:00 20.7 6 Noroeste 15 Norte 0 -- -- 44
2020-05-19 11:00:00 19.7 6 Noroeste 14 Noroeste 0 -- -- 41
2020-05-19 10:00:00 17.9 4 Noroeste 9 Noroeste 0 -- -- 49
2020-05-19 09:00:00 14.3 2 Este 5 Norte 0 -- -- 61
2020-05-19 08:00:00 9.1 0 Calma 3 Sur 0 -- -- 93
2020-05-19 07:00:00 7.8 0 Calma 2 Sudoeste 0 -- -- 92
2020-05-19 06:00:00 8.4 0 Calma 3 Noroeste 0 -- -- 90
2020-05-19 05:00:00 8.9 0 Calma 3 Sudeste 0 -- -- 89
2020-05-19 04:00:00 9.5 0 Calma 5 Sudoeste 0 -- -- 86
2020-05-19 03:00:00 10.8 2 Sudoeste 5 Sudoeste 0 -- -- 79
2020-05-19 02:00:00 12.3 0 Calma 10 Sudeste 0 -- -- 73
2020-05-19 01:00:00 11.8 3 Sur 4 Sudeste 0 -- -- 76
2020-05-19 00:00:00 12.2 0 Calma 3 Noroeste 0 -- -- 76
2020-05-18 23:00:00 13.5 0 Calma 4 Oeste 0 -- -- 72
2020-05-18 22:00:00 16.1 0 Calma 10 Noroeste 0 -- -- 61
2020-05-18 21:00:00 20.5 6 Noroeste 22 Noroeste 0 -- -- 42
2020-05-18 20:00:00 24.3 11 Norte 25 Norte 0 -- -- 36
2020-05-18 19:00:00 24.8 13 Norte 31 Noroeste 0 -- -- 33
2020-05-18 18:00:00 25.5 12 Noroeste 31 Noroeste 0 -- -- 33
2020-05-18 17:00:00 25 15 Norte 33 Noroeste 0 -- -- 31
2020-05-18 16:00:00 24.3 13 Norte 29 Norte 0 -- -- 34
2020-05-18 15:00:00 23.2 13 Norte 26 Noroeste 0 -- -- 35
2020-05-18 14:00:00 21.9 12 Norte 27 Noroeste 0 -- -- 39
2020-05-18 13:00:00 20.7 15 Noroeste 28 Noroeste 0 -- -- 38
2020-05-18 12:00:00 19.8 10 Norte 25 Noroeste 0 -- -- 45
2020-05-18 11:00:00 18.4 12 Noroeste 22 Noroeste 0 -- -- 45
2020-05-18 10:00:00 16.7 10 Norte 19 Norte 0 -- -- 51
2020-05-18 09:00:00 13.6 0 Calma 3 Noroeste 0 -- -- 70
2020-05-18 08:00:00 8.1 0 Calma 3 Este 0 -- -- 95
2020-05-18 07:00:00 6.2 0 Calma 3 Sur 0 -- -- 93
2020-05-18 06:00:00 6.3 0 Calma 3 Sur 0 -- -- 93
2020-05-18 05:00:00 6.6 0 Calma 3 Sur 0 -- -- 91
2020-05-18 04:00:00 7 0 Calma 3 Sudoeste 0 -- -- 90
2020-05-18 03:00:00 7.4 0 Calma 2 Sudoeste 0 -- -- 89
2020-05-18 02:00:00 7.9 0 Calma 3 Oeste 0 -- -- 88
2020-05-18 01:00:00 8.8 0 Calma 4 Sudoeste 0 -- -- 83
2020-05-18 00:00:00 9.1 0 Calma 3 Sudoeste 0 -- -- 87
2020-05-17 23:00:00 10.3 0 Calma 3 Oeste 0 -- -- 82
2020-05-17 22:00:00 13.5 2 Sudoeste 17 Oeste 0 -- -- 62
2020-05-17 21:00:00 16.5 8 Oeste 15 Noroeste 0 -- -- 49
2020-05-17 20:00:00 19.7 9 Noroeste 22 Noroeste 0 -- -- 41
2020-05-17 19:00:00 20.4 9 Noroeste 22 Noroeste 0 -- -- 42
2020-05-17 18:00:00 20.7 6 Oeste 22 Noroeste 0 -- -- 40
2020-05-17 17:00:00 20.3 8 Oeste 22 Noroeste 0 -- -- 41
2020-05-17 16:00:00 19.3 10 Noroeste 24 Noroeste 0 -- -- 41
2020-05-17 15:00:00 18.1 7 Noroeste 19 Oeste 0 -- -- 48
2020-05-17 14:00:00 18.4 8 Norte 17 Noroeste 0 -- -- 48
2020-05-17 13:00:00 17.4 7 Noroeste 17 Noroeste 0 -- -- 48
2020-05-17 12:00:00 17 3 Norte 15 Noroeste 0 -- -- 54
2020-05-17 11:00:00 15.1 5 Noroeste 12 Oeste 0.2 -- -- 60
2020-05-17 10:00:00 13.5 2 Sudeste 8 Este 0 -- -- 71
2020-05-17 09:00:00 10 0 Calma 3 Nordeste 0 -- -- 85
2020-05-17 08:00:00 6.2 0 Calma 4 Norte 0 -- -- 97
2020-05-17 07:00:00 5.9 0 Calma 5 Sur 0 -- -- 96
2020-05-17 06:00:00 6.5 2 Nordeste 6 Este 0 -- -- 94
2020-05-17 05:00:00 7.5 0 Calma 5 Nordeste 0 -- -- 92
2020-05-17 04:00:00 8.1 0 Calma 3 Sur 0 -- -- 94
2020-05-17 03:00:00 7.8 0 Calma 5 Nordeste 0 -- -- 96
2020-05-17 02:00:00 7.2 2 Nordeste 7 Nordeste 0 -- -- 97
2020-05-17 01:00:00 7.2 0 Calma 5 Norte 0 -- -- 97
2020-05-17 00:00:00 7.8 0 Calma 6 Noroeste 0 -- -- 97
2020-05-16 23:00:00 7.8 0 Calma 3 Sudeste 0 -- -- 96
2020-05-16 22:00:00 9.2 0 Calma 6 Este 0 -- -- 91
2020-05-16 21:00:00 10.6 4 Sudeste 23 Sudeste 0 -- -- 90
2020-05-16 20:00:00 13.1 4 Sur 12 Sudeste 0 -- -- 86
2020-05-16 19:00:00 12.7 7 Sur 15 Sudoeste 0 -- -- 88
2020-05-16 18:00:00 12 12 Sudoeste 23 Sudoeste 0.4 -- -- 89
2020-05-16 17:00:00 14.2 9 Sudoeste 18 Sudoeste 0.4 -- -- 78
2020-05-16 16:00:00 13.9 11 Norte 26 Norte 0 -- -- 73
2020-05-16 15:00:00 15.6 7 Norte 19 Norte 0 -- -- 63
2020-05-16 14:00:00 15.6 5 Norte 15 Norte 0 -- -- 65
2020-05-16 13:00:00 14.6 7 Noroeste 14 Noroeste 0 -- -- 67
2020-05-16 12:00:00 14 6 Norte 13 Nordeste 0 -- -- 73
2020-05-16 11:00:00 13.6 4 Norte 10 Nordeste 0 -- -- 74
2020-05-16 10:00:00 11.6 4 Norte 13 Norte 0 -- -- 86
2020-05-16 09:00:00 10.1 3 Norte 5 Norte 0 -- -- 94
2020-05-16 08:00:00 8.5 2 Sudeste 5 Sudeste 0 -- -- 97
2020-05-16 07:00:00 8.4 0 Calma 3 Sur 0 -- -- 99
2020-05-16 06:00:00 8.5 0 Calma 2 Sur 0 -- -- 99
2020-05-16 05:00:00 8.3 0 Calma 2 Sur 0 -- -- 99
2020-05-16 04:00:00 7.6 0 Calma 2 Oeste 0 -- -- 98
2020-05-16 03:00:00 7.8 0 Calma 5 Norte 0 -- -- 97
2020-05-16 02:00:00 8.3 2 Norte 6 Norte 0 -- -- 97
2020-05-16 01:00:00 8.5 0 Calma 8 Sudeste 0 -- -- 98
2020-05-16 00:00:00 8.6 0 Calma 3 Sudoeste 0 -- -- 98
2020-05-15 23:00:00 8.9 0 Calma 3 Norte 0 -- -- 98
2020-05-15 22:00:00 9 0 Calma 4 Este 0.2 -- -- 97
2020-05-15 21:00:00 9 4 Sudoeste 22 Sur 6.8 -- -- 96
2020-05-15 20:00:00 9.9 3 Norte 6 Norte 0 -- -- 94
2020-05-15 19:00:00 9.4 3 Noroeste 7 Noroeste 0 -- -- 94
2020-05-15 18:00:00 8.6 2 Sudeste 30 Sudeste 2.8 -- -- 95
2020-05-15 17:00:00 11.4 14 Sudeste 36 Sudeste 1.2 -- -- 76
2020-05-15 16:00:00 10.9 4 Norte 14 Sudoeste 2 -- -- 93
2020-05-15 15:00:00 9.3 12 Sudoeste 35 Sudeste 4.2 -- -- 91
2020-05-15 14:00:00 11.7 12 Sur 22 Sur 0.4 -- -- 75
2020-05-15 13:00:00 15.1 3 Oeste 9 Sudoeste 0 -- -- 67
2020-05-15 12:00:00 15 6 Noroeste 14 Norte 0 -- -- 62
2020-05-15 11:00:00 14.2 7 Norte 17 Norte 0 -- -- 66
2020-05-15 10:00:00 12.7 7 Norte 17 Norte 0 -- -- 75
2020-05-15 09:00:00 10.4 4 Norte 9 Norte 0 -- -- 87
2020-05-15 08:00:00 8 0 Calma 5 Oeste 0 -- -- 98
2020-05-15 07:00:00 7.3 0 Calma 6 Noroeste 0 -- -- 98
2020-05-15 06:00:00 6.8 5 Sur 6 Sur 0 -- -- 98
2020-05-15 05:00:00 7.3 5 Oeste 10 Oeste 0 -- -- 97
2020-05-15 04:00:00 7.8 0 Calma 11 Oeste 0 -- -- 91
2020-05-15 03:00:00 8.9 6 Oeste 17 Oeste 0 -- -- 89
2020-05-15 02:00:00 9 8 Oeste 18 Oeste 0 -- -- 87
2020-05-15 01:00:00 9.2 6 Oeste 14 Oeste 0 -- -- 90
2020-05-15 00:00:00 9.4 2 Norte 5 Sur 0 -- -- 92
2020-05-14 23:00:00 9.2 0 Calma 4 Noroeste 0 -- -- 89
2020-05-14 22:00:00 9.4 0 Calma 7 Oeste 0 -- -- 86
2020-05-14 21:00:00 10 4 Oeste 8 Oeste 0 -- -- 81
2020-05-14 20:00:00 10.9 4 Noroeste 15 Noroeste 0 -- -- 78
2020-05-14 19:00:00 11.5 5 Oeste 15 Noroeste 0 -- -- 71
2020-05-14 18:00:00 11.5 7 Oeste 19 Oeste 0 -- -- 71
2020-05-14 17:00:00 11.3 8 Noroeste 19 Oeste 0 -- -- 74
2020-05-14 16:00:00 10.5 11 Noroeste 24 Oeste 0 -- -- 78
2020-05-14 15:00:00 10.5 8 Noroeste 19 Noroeste 0 -- -- 79
2020-05-14 14:00:00 9.9 10 Noroeste 20 Noroeste 0 -- -- 80
2020-05-14 13:00:00 9.6 9 Noroeste 19 Noroeste 0 -- -- 85
2020-05-14 12:00:00 7.5 5 Noroeste 21 Noroeste 1.8 -- -- 95
2020-05-14 11:00:00 7.4 6 Noroeste 14 Oeste 2 -- -- 96
2020-05-14 10:00:00 7 9 Oeste 17 Oeste 3 -- -- 95
2020-05-14 09:00:00 7 12 Oeste 30 Oeste 3.2 -- -- 96
2020-05-14 08:00:00 8.6 3 Noroeste 12 Noroeste 3 -- -- 97
2020-05-14 07:00:00 8.9 2 Norte 11 Oeste 0.6 -- -- 96
2020-05-14 06:00:00 9.1 7 Sur 21 Sudoeste 0.2 -- -- 93
2020-05-14 05:00:00 10.1 9 Sudeste 14 Sudeste 0 -- -- 82
2020-05-14 04:00:00 9.4 2 Sudeste 8 Sudeste 0 -- -- 87
2020-05-14 03:00:00 10 8 Sudeste 14 Sudeste 0 -- -- 84
2020-05-14 02:00:00 9.7 9 Sudeste 12 Sudeste 0 -- -- 87
2020-05-14 01:00:00 9.2 4 Sudeste 10 Sudeste 0 -- -- 91
2020-05-14 00:00:00 9.1 6 Sudeste 8 Sudeste 0 -- -- 90
2020-05-13 23:00:00 9.3 2 Sudeste 8 Sur 0 -- -- 89
2020-05-13 22:00:00 10.1 3 Sudeste 5 Sudoeste 0 -- -- 88
2020-05-13 21:00:00 11.9 3 Sudoeste 10 Sur 0 -- -- 78
2020-05-13 20:00:00 14.1 3 Sudeste 10 Sur 0 -- -- 70
2020-05-13 19:00:00 14.2 5 Sur 12 Sur 0 -- -- 67
2020-05-13 18:00:00 14.5 4 Sudoeste 13 Sur 0 -- -- 65
2020-05-13 17:00:00 14.9 3 Sudoeste 15 Sur 0 -- -- 67
2020-05-13 16:00:00 13.6 4 Sudoeste 11 Noroeste 0 -- -- 69
2020-05-13 15:00:00 14.2 6 Noroeste 19 Noroeste 0 -- -- 67
2020-05-13 14:00:00 13.1 9 Oeste 21 Oeste 0 -- -- 74
2020-05-13 13:00:00 12 7 Oeste 21 Oeste 0 -- -- 82
2020-05-13 12:00:00 11.1 7 Oeste 19 Oeste 0 -- -- 84
2020-05-13 11:00:00 9.7 7 Oeste 17 Oeste 0 -- -- 92
2020-05-13 10:00:00 8.2 9 Oeste 18 Oeste 0.2 -- -- 98
2020-05-13 09:00:00 7.6 4 Oeste 16 Oeste 0 -- -- 98
2020-05-13 08:00:00 7.3 5 Oeste 16 Oeste 0 -- -- 98
2020-05-13 07:00:00 7.2 8 Oeste 22 Oeste 0 -- -- 98
2020-05-13 06:00:00 7.4 9 Oeste 18 Oeste 0 -- -- 98
2020-05-13 05:00:00 7.4 10 Oeste 20 Oeste 0.2 -- -- 98
2020-05-13 04:00:00 7.7 10 Oeste 22 Noroeste 1 -- -- 98
2020-05-13 03:00:00 7.7 12 Oeste 22 Sudoeste 1 -- -- 98
2020-05-13 02:00:00 7.9 11 Sudoeste 21 Sudoeste 0.6 -- -- 97
2020-05-13 01:00:00 7.9 8 Sur 17 Sudeste 0 -- -- 97
2020-05-13 00:00:00 7.7 10 Sur 15 Sudeste 0 -- -- 97
2020-05-12 23:00:00 7.8 5 Sur 16 Sur 0 -- -- 96
2020-05-12 22:00:00 8.1 9 Sur 19 Sur 0 -- -- 97
2020-05-12 21:00:00 8.4 10 Sur 16 Sur 2.4 -- -- 96
2020-05-12 20:00:00 8.7 3 Sudoeste 15 Sudoeste 3.8 -- -- 96
2020-05-12 19:00:00 9.3 3 Sudoeste 25 Oeste 1.6 -- -- 95
2020-05-12 18:00:00 10.4 4 Sudoeste 11 Oeste 1.8 -- -- 93
2020-05-12 17:00:00 11 2 Sudeste 5 Sudeste 1.4 -- -- 89
2020-05-12 16:00:00 11.3 0 Calma 7 Noroeste 0.8 -- -- 87
2020-05-12 15:00:00 11.4 3 Norte 5 Norte 0.6 -- -- 89
2020-05-12 14:00:00 11.2 2 Sudeste 7 Norte 1.2 -- -- 88
2020-05-12 13:00:00 11.1 3 Norte 14 Sudeste 3 -- -- 95
2020-05-12 12:00:00 11.5 9 Sur 13 Sur 0 -- -- 88
2020-05-12 11:00:00 11.8 5 Sur 11 Sur 0 -- -- 87
2020-05-12 10:00:00 10.9 0 Calma 10 Sudeste 0 -- -- 91
2020-05-12 09:00:00 10 5 Sudeste 10 Sudeste 0 -- -- 96
2020-05-12 08:00:00 9.1 3 Este 6 Este 0 -- -- 97
2020-05-12 07:00:00 9 0 Calma 17 Sudeste 0 -- -- 97
2020-05-12 06:00:00 8.9 10 Sur 17 Sur 0 -- -- 97
2020-05-12 05:00:00 7.7 3 Sur 6 Este 0 -- -- 98
2020-05-12 04:00:00 7.4 4 Sur 10 Sur 0 -- -- 97
2020-05-12 03:00:00 7.1 2 Sudoeste 3 Sudoeste 0 -- -- 97
2020-05-12 02:00:00 7.1 0 Calma 2 Sudoeste 0 -- -- 96
2020-05-12 01:00:00 8 0 Calma 4 Oeste 0 -- -- 95
2020-05-12 00:00:00 8.8 0 Calma 3 Oeste 0 -- -- 92
2020-05-11 23:00:00 11.4 0 Calma 18 Oeste 0 -- -- 86
2020-05-11 22:00:00 12 4 Oeste 15 Oeste 0 -- -- 88
2020-05-11 21:00:00 12 4 Noroeste 24 Noroeste 0.2 -- -- 89
2020-05-11 20:00:00 14.9 12 Noroeste 24 Noroeste 0 -- -- 67
2020-05-11 19:00:00 13.6 10 Noroeste 36 Noroeste 0 -- -- 72
2020-05-11 18:00:00 17 15 Oeste 33 Oeste 0 -- -- 49
2020-05-11 17:00:00 16.6 12 Oeste 30 Oeste 0 -- -- 54
2020-05-11 16:00:00 15.8 13 Oeste 35 Oeste 0 -- -- 59
2020-05-11 15:00:00 14.7 15 Oeste 31 Noroeste 0 -- -- 65
2020-05-11 14:00:00 14.5 13 Oeste 30 Oeste 0 -- -- 65
2020-05-11 13:00:00 13.7 16 Oeste 34 Oeste 0 -- -- 70
2020-05-11 12:00:00 13 14 Oeste 33 Oeste 0 -- -- 72
2020-05-11 11:00:00 11.4 15 Oeste 30 Oeste 0 -- -- 82
2020-05-11 10:00:00 9.9 12 Oeste 21 Oeste 0.4 -- -- 91
2020-05-11 09:00:00 9.8 9 Noroeste 22 Oeste 0 -- -- 88
2020-05-11 08:00:00 9 12 Oeste 27 Oeste 0 -- -- 90
2020-05-11 07:00:00 8.8 13 Oeste 29 Oeste 0 -- -- 89
2020-05-11 06:00:00 8.8 10 Oeste 26 Oeste 0 -- -- 92
2020-05-11 05:00:00 8.4 9 Oeste 20 Oeste 0 -- -- 91
2020-05-11 04:00:00 8.5 10 Oeste 19 Oeste 0 -- -- 88
2020-05-11 03:00:00 9 11 Oeste 20 Oeste 0 -- -- 85
2020-05-11 02:00:00 9.7 6 Oeste 23 Oeste 0 -- -- 82
2020-05-11 01:00:00 10 8 Noroeste 27 Noroeste 0 -- -- 78
2020-05-11 00:00:00 10.1 11 Oeste 22 Oeste 0 -- -- 75
2020-05-10 23:00:00 10.7 9 Oeste 18 Oeste 0 -- -- 71
2020-05-10 22:00:00 11.2 9 Oeste 30 Oeste 0 -- -- 66
2020-05-10 21:00:00 12.6 16 Oeste 32 Noroeste 0 -- -- 61
2020-05-10 20:00:00 14.7 13 Noroeste 38 Oeste 0 -- -- 56
2020-05-10 19:00:00 15.4 17 Noroeste 37 Noroeste 0 -- -- 53
2020-05-10 18:00:00 14 14 Oeste 40 Oeste 0 -- -- 64
2020-05-10 17:00:00 14.6 23 Oeste 42 Oeste 0 -- -- 54
2020-05-10 16:00:00 16.4 19 Oeste 37 Noroeste 0 -- -- 47
2020-05-10 15:00:00 15.3 18 Oeste 35 Noroeste 0 -- -- 50
2020-05-10 14:00:00 13.9 21 Noroeste 37 Noroeste 0 -- -- 56
2020-05-10 13:00:00 12.6 21 Oeste 40 Oeste 1.2 -- -- 61
2020-05-10 12:00:00 12.5 14 Noroeste 27 Noroeste 0 -- -- 69
2020-05-10 11:00:00 10.1 13 Oeste 26 Oeste 0 -- -- 79
2020-05-10 10:00:00 9.9 11 Noroeste 31 Oeste 0 -- -- 82
2020-05-10 09:00:00 9.1 9 Noroeste 24 Noroeste 0.8 -- -- 92
2020-05-10 08:00:00 9.4 4 Oeste 16 Noroeste 0 -- -- 90
2020-05-10 07:00:00 9.7 10 Noroeste 18 Noroeste 0 -- -- 90
2020-05-10 06:00:00 10.1 4 Noroeste 6 Noroeste 0 -- -- 91
2020-05-10 05:00:00 10.2 0 Calma 4 Norte 0 -- -- 89
2020-05-10 04:00:00 10.8 4 Noroeste 10 Noroeste 0.4 -- -- 86
2020-05-10 03:00:00 11.1 4 Noroeste 14 Noroeste 0 -- -- 76
2020-05-10 02:00:00 11.9 3 Noroeste 13 Oeste 0 -- -- 72
2020-05-10 01:00:00 13.5 4 Sudoeste 14 Oeste 0 -- -- 62
2020-05-10 00:00:00 14.1 5 Sudoeste 15 Sur 0 -- -- 56
2020-05-09 23:00:00 15 4 Sur 14 Sudoeste 0 -- -- 50
2020-05-09 22:00:00 15.7 4 Sur 13 Oeste 0 -- -- 45
2020-05-09 21:00:00 18.1 8 Oeste 23 Oeste 0 -- -- 38
2020-05-09 20:00:00 20.8 8 Sudoeste 27 Sudoeste 0 -- -- 34
2020-05-09 19:00:00 21.5 10 Sudoeste 32 Sudoeste 0 -- -- 37
2020-05-09 18:00:00 21.6 13 Sudoeste 29 Sudoeste 0 -- -- 39
2020-05-09 17:00:00 22.9 10 Sudoeste 28 Sudoeste 0 -- -- 42
2020-05-09 16:00:00 21.3 10 Sudoeste 26 Sur 0 -- -- 46
2020-05-09 15:00:00 20.7 11 Sudoeste 27 Sur 0 -- -- 49
2020-05-09 14:00:00 20.5 14 Sudoeste 26 Sudoeste 0 -- -- 53
2020-05-09 13:00:00 19.9 14 Sudoeste 26 Sudoeste 0 -- -- 52
2020-05-09 12:00:00 18.3 8 Sudoeste 17 Sudoeste 0 -- -- 56
2020-05-09 11:00:00 16 7 Oeste 18 Oeste 0 -- -- 71
2020-05-09 10:00:00 15.2 4 Oeste 14 Sudoeste 0 -- -- 79
2020-05-09 09:00:00 14.9 6 Sudoeste 11 Sudoeste 0 -- -- 79
2020-05-09 08:00:00 11.2 0 Calma 4 Sudeste 0 -- -- 94
2020-05-09 07:00:00 11.5 2 Nordeste 19 Sudeste 0 -- -- 92
2020-05-09 06:00:00 12 14 Sudeste 25 Sudeste 0 -- -- 89
2020-05-09 05:00:00 12 7 Sudeste 17 Sudeste 0 -- -- 86
2020-05-09 04:00:00 12.9 5 Sudeste 22 Sudeste 0 -- -- 81
2020-05-09 03:00:00 13.7 13 Sudeste 24 Sudeste 0 -- -- 76
2020-05-09 02:00:00 14.3 12 Sudeste 27 Sudeste 0 -- -- 72
2020-05-09 01:00:00 14.7 12 Sudeste 23 Sudeste 0 -- -- 69
2020-05-09 00:00:00 15.5 14 Sudeste 26 Sudeste 0 -- -- 62
2020-05-08 23:00:00 16.5 16 Sudeste 26 Sudeste 0 -- -- 54
2020-05-08 22:00:00 17.9 14 Sudeste 32 Sudeste 0 -- -- 52
2020-05-08 21:00:00 20.3 19 Sudeste 28 Sudeste 0 -- -- 44
2020-05-08 20:00:00 23.3 12 Sudeste 24 Sudeste 0 -- -- 42
2020-05-08 19:00:00 24.3 16 Sur 28 Sur 0 -- -- 40
2020-05-08 18:00:00 24.8 15 Sur 25 Sudeste 0 -- -- 36
2020-05-08 17:00:00 25.4 12 Sur 26 Sur 0 -- -- 32
2020-05-08 16:00:00 25.6 9 Sur 26 Sudoeste 0 -- -- 33
2020-05-08 15:00:00 24.7 13 Sur 23 Sudeste 0 -- -- 33
2020-05-08 14:00:00 23.5 10 Sudeste 28 Sur 0 -- -- 36
2020-05-08 13:00:00 22.2 15 Sur 27 Sur 0 -- -- 38
2020-05-08 12:00:00 21.6 12 Sudeste 26 Sudeste 0 -- -- 41
2020-05-08 11:00:00 19.6 15 Sudeste 24 Sudeste 0 -- -- 47
2020-05-08 10:00:00 16.9 15 Sudeste 25 Sudeste 0 -- -- 53
2020-05-08 09:00:00 13.7 17 Sudeste 35 Sudeste 0 -- -- 63
2020-05-08 08:00:00 12.5 14 Sudeste 27 Sudeste 0 -- -- 65
2020-05-08 07:00:00 12.8 15 Sudeste 37 Sudeste 0 -- -- 64
2020-05-08 06:00:00 12.3 14 Sudeste 24 Sudeste 0 -- -- 68
2020-05-08 05:00:00 12.4 15 Sudeste 26 Sudeste 0 -- -- 67
2020-05-08 04:00:00 12.3 18 Sudeste 29 Sudeste 0 -- -- 67
2020-05-08 03:00:00 12.5 18 Sudeste 33 Sudeste 0 -- -- 67
2020-05-08 02:00:00 12.8 19 Sudeste 34 Sudeste 0 -- -- 68
2020-05-08 01:00:00 13.4 19 Sudeste 31 Sudeste 0 -- -- 68
2020-05-08 00:00:00 13.8 18 Sudeste 32 Sudeste 0 -- -- 66
2020-05-07 23:00:00 14.8 15 Sudeste 29 Sudeste 0 -- -- 63
2020-05-07 22:00:00 15.7 17 Sudeste 33 Sudeste 0 -- -- 59
2020-05-07 21:00:00 17.3 20 Sudeste 39 Sudeste 0 -- -- 52
2020-05-07 20:00:00 19.3 23 Sudeste 36 Sudeste 0 -- -- 46
2020-05-07 19:00:00 19.8 24 Sudeste 44 Sur 0 -- -- 44
2020-05-07 18:00:00 20.8 28 Sudeste 46 Sudeste 0 -- -- 45
2020-05-07 17:00:00 21.9 28 Sudeste 47 Sudeste 0 -- -- 43
2020-05-07 16:00:00 21.5 22 Sudeste 52 Sudeste 0 -- -- 44
2020-05-07 15:00:00 23.6 31 Sudeste 48 Sudeste 0 -- -- 40
2020-05-07 14:00:00 23.2 30 Sudeste 50 Sudeste 0 -- -- 41
2020-05-07 13:00:00 22.7 30 Sudeste 50 Sudeste 0 -- -- 42
2020-05-07 12:00:00 20.9 31 Sudeste 45 Sudeste 0 -- -- 40
2020-05-07 11:00:00 20.5 27 Sudeste 45 Sudeste 0 -- -- 43
2020-05-07 10:00:00 18.1 21 Sudeste 37 Sudeste 0 -- -- 52
2020-05-07 09:00:00 15.6 20 Sudeste 31 Sudeste 0 -- -- 58
2020-05-07 08:00:00 14.9 12 Sudeste 26 Sudeste 0 -- -- 61
2020-05-07 07:00:00 13.8 14 Sudeste 23 Sudeste 0 -- -- 69
2020-05-07 06:00:00 13.6 13 Sudeste 27 Sudeste 0 -- -- 73
2020-05-07 05:00:00 13.8 12 Sudeste 20 Sudeste 0 -- -- 72
2020-05-07 04:00:00 14.4 12 Sudeste 19 Sudeste 0 -- -- 69
2020-05-07 03:00:00 14.7 10 Sudeste 17 Sudeste 0 -- -- 67
2020-05-07 02:00:00 14.8 10 Sudeste 19 Sudeste 0 -- -- 68
2020-05-07 01:00:00 13.5 6 Sudeste 13 Sudeste 0 -- -- 68
2020-05-07 00:00:00 13.2 6 Sudeste 10 Sur 0 -- -- 52
2020-05-06 23:00:00 13 2 Sur 4 Sudeste 0 -- -- 57
2020-05-06 22:00:00 15.1 0 Calma 7 Norte 0 -- -- 54
2020-05-06 21:00:00 18.9 3 Noroeste 8 Oeste 0 -- -- 44
2020-05-06 20:00:00 25.1 5 Noroeste 13 Noroeste 0 -- -- 30
2020-05-06 19:00:00 25.5 5 Noroeste 16 Noroeste 0 -- -- 30
2020-05-06 18:00:00 26.7 5 Noroeste 16 Noroeste 0 -- -- 25
2020-05-06 17:00:00 25.9 8 Noroeste 21 Noroeste 0 -- -- 25
2020-05-06 16:00:00 25 9 Noroeste 17 Noroeste 0 -- -- 28
2020-05-06 15:00:00 24.5 5 Sudoeste 20 Oeste 0 -- -- 30
2020-05-06 14:00:00 23.5 9 Noroeste 24 Noroeste 0 -- -- 35
2020-05-06 13:00:00 22.4 5 Noroeste 21 Oeste 0 -- -- 34
2020-05-06 12:00:00 21.2 8 Noroeste 18 Oeste 0 -- -- 38
2020-05-06 11:00:00 20.8 4 Oeste 10 Noroeste 0 -- -- 32
2020-05-06 10:00:00 19.5 2 Sudoeste 6 Este 0 -- -- 28
2020-05-06 09:00:00 14.6 0 Calma 4 Sudeste 0 -- -- 54
2020-05-06 08:00:00 8.9 0 Calma 3 Sudeste 0 -- -- 80
2020-05-06 07:00:00 7.5 0 Calma 3 Sur 0 -- -- 71
2020-05-06 06:00:00 7.4 0 Calma 3 Sudoeste 0 -- -- 68
2020-05-06 05:00:00 7.6 0 Calma 3 Sur 0 -- -- 68
2020-05-06 04:00:00 8.1 0 Calma 3 Oeste 0 -- -- 68
2020-05-06 03:00:00 8.8 0 Calma 2 Sudoeste 0 -- -- 68
2020-05-06 02:00:00 9.8 0 Calma 6 Oeste 0 -- -- 67
2020-05-06 01:00:00 10.4 0 Calma 3 Sudoeste 0 -- -- 67
2020-05-06 00:00:00 11.7 0 Calma 4 Sudeste 0 -- -- 64
2020-05-05 23:00:00 12.4 0 Calma 4 Sur 0 -- -- 62
2020-05-05 22:00:00 14.7 0 Calma 8 Noroeste 0 -- -- 56
2020-05-05 21:00:00 18.1 3 Noroeste 12 Noroeste 0 -- -- 50
2020-05-05 20:00:00 23.1 5 Noroeste 19 Noroeste 0 -- -- 35
2020-05-05 19:00:00 23.6 6 Noroeste 18 Oeste 0 -- -- 34
2020-05-05 18:00:00 22.1 10 Noroeste 22 Noroeste 0 -- -- 36
2020-05-05 17:00:00 22.5 7 Oeste 18 Noroeste 0 -- -- 37
2020-05-05 16:00:00 21.8 10 Noroeste 22 Noroeste 0 -- -- 41
2020-05-05 15:00:00 21.9 6 Oeste 15 Noroeste 0 -- -- 37
2020-05-05 14:00:00 20.7 5 Noroeste 16 Oeste 0 -- -- 46
2020-05-05 13:00:00 20.7 8 Noroeste 26 Noroeste 0 -- -- 48
2020-05-05 12:00:00 19.9 8 Oeste 19 Oeste 0 -- -- 55
2020-05-05 11:00:00 19 6 Norte 17 Noroeste 0 -- -- 59
2020-05-05 10:00:00 16.2 4 Noroeste 9 Noroeste 0 -- -- 70
2020-05-05 09:00:00 13.4 0 Calma 4 Noroeste 0 -- -- 79
2020-05-05 08:00:00 10 2 Noroeste 5 Oeste 0 -- -- 92
2020-05-05 07:00:00 9.1 0 Calma 3 Oeste 0 -- -- 89
2020-05-05 06:00:00 9.6 0 Calma 4 Oeste 0 -- -- 86
2020-05-05 05:00:00 10.5 0 Calma 6 Oeste 0 -- -- 82
2020-05-05 04:00:00 10.6 0 Calma 3 Sur 0 -- -- 84
2020-05-05 03:00:00 11.6 0 Calma 3 Sudoeste 0 -- -- 82
2020-05-05 02:00:00 13.4 0 Calma 9 Oeste 0 -- -- 76
2020-05-05 01:00:00 16.7 7 Noroeste 17 Oeste 0 -- -- 65
2020-05-05 00:00:00 18.5 7 Sur 19 Sur 0 -- -- 51
2020-05-04 23:00:00 18.4 12 Sur 15 Sur 0 -- -- 54
2020-05-04 22:00:00 19.3 9 Sur 20 Sur 0 -- -- 50
2020-05-04 21:00:00 22.2 10 Sur 32 Sur 0 -- -- 41
2020-05-04 20:00:00 25 19 Sur 37 Sur 0 -- -- 34
2020-05-04 19:00:00 26.7 26 Sur 42 Sur 0 -- -- 29
2020-05-04 18:00:00 27 29 Sudeste 45 Sudeste 0 -- -- 29
2020-05-04 17:00:00 27.4 33 Sudeste 51 Sudeste 0 -- -- 29
2020-05-04 16:00:00 27.7 31 Sudeste 47 Sudeste 0 -- -- 28
2020-05-04 15:00:00 24.9 24 Sudeste 41 Sudeste 0 -- -- 37
2020-05-04 14:00:00 26.8 26 Sudeste 42 Sudeste 0 -- -- 33
2020-05-04 13:00:00 25.6 22 Sudeste 40 Sudeste 0 -- -- 33
2020-05-04 12:00:00 24.4 23 Sudeste 37 Sur 0 -- -- 35
2020-05-04 11:00:00 22.5 20 Sudeste 40 Sudeste 0 -- -- 40
2020-05-04 10:00:00 20.3 24 Sudeste 44 Sudeste 0 -- -- 45
2020-05-04 09:00:00 18.3 11 Sudeste 24 Sudeste 0 -- -- 55
2020-05-04 08:00:00 16.8 18 Sudeste 27 Sudeste 0 -- -- 58
2020-05-04 07:00:00 14.3 3 Este 8 Este 0 -- -- 69
2020-05-04 06:00:00 14.6 0 Calma 15 Sudeste 0 -- -- 69
2020-05-04 05:00:00 15.3 5 Sudeste 14 Sudeste 0 -- -- 68
2020-05-04 04:00:00 15.5 2 Nordeste 10 Este 0 -- -- 68
2020-05-04 03:00:00 16.2 2 Sudeste 24 Sudeste 0 -- -- 67
2020-05-04 02:00:00 16.7 16 Sur 24 Sudeste 0 -- -- 65
2020-05-04 01:00:00 17.3 17 Sudeste 26 Sudeste 0 -- -- 65
2020-05-04 00:00:00 18.1 20 Sudeste 24 Sudeste 0 -- -- 63
2020-05-03 23:00:00 20 17 Sudeste 27 Sudeste 0 -- -- 52
2020-05-03 22:00:00 19.5 10 Sur 13 Sur 0 -- -- 48
2020-05-03 21:00:00 21.4 4 Sur 9 Sudeste 0 -- -- 48
2020-05-03 20:00:00 26.4 5 Sur 21 Sudoeste 0 -- -- 29
2020-05-03 19:00:00 27.8 7 Sur 23 Sur 0 -- -- 26
2020-05-03 18:00:00 27.9 10 Sur 19 Sur 0 -- -- 25
2020-05-03 17:00:00 28 8 Sudeste 23 Sur 0 -- -- 25
2020-05-03 16:00:00 26.8 14 Sur 31 Sudeste 0 -- -- 29
2020-05-03 15:00:00 26.4 10 Sudoeste 24 Sudoeste 0 -- -- 28
2020-05-03 14:00:00 25.3 6 Oeste 17 Sur 0 -- -- 34
2020-05-03 13:00:00 24.1 6 Sur 19 Sudoeste 0 -- -- 39
2020-05-03 12:00:00 23.1 6 Sur 13 Sur 0 -- -- 41
2020-05-03 11:00:00 22 5 Sur 14 Sudeste 0 -- -- 47
2020-05-03 10:00:00 19.9 0 Calma 4 Norte 0 -- -- 58
2020-05-03 09:00:00 15.2 2 Norte 4 Nordeste 0 -- -- 70
2020-05-03 08:00:00 9.7 0 Calma 3 Sur 0 -- -- 90
2020-05-03 07:00:00 9.3 0 Calma 4 Sur 0 -- -- 85
2020-05-03 06:00:00 10.1 3 Sur 4 Sur 0 -- -- 82
2020-05-03 05:00:00 9.7 2 Sur 3 Sur 0 -- -- 82
2020-05-03 04:00:00 10.3 0 Calma 3 Noroeste 0 -- -- 79
2020-05-03 03:00:00 10.6 0 Calma 3 Sudoeste 0 -- -- 77
2020-05-03 02:00:00 11 0 Calma 3 Sudoeste 0 -- -- 76
2020-05-03 01:00:00 11.5 0 Calma 3 Sudoeste 0 -- -- 74
2020-05-03 00:00:00 13.3 2 Sudeste 9 Oeste 0 -- -- 67